Time;durP1;ratioP1;P1;durP2;ratioP2;P2;SDS_P1;SDS_P2;PMS_P1;PMS_P2;Temp;Humidity;BMP_temperature;BMP_pressure;BME280_temperature;BME280_humidity;BME280_pressure;Samples;Min_cycle;Max_cycle;Signal;HPM_P1;HPM_P2
2023/02/26 00:02:08;;;;;;;1.83;1.27;;;-0.10;99.90;;;;;;5114049;28;20197;-72
2023/02/26 00:04:34;;;;;;;7.90;1.40;;;-0.20;99.90;;;;;;5113324;27;20886;-71
2023/02/26 00:06:59;;;;;;;2.20;1.30;;;-0.20;99.90;;;;;;5147073;27;20492;-72
2023/02/26 00:09:25;;;;;;;6.30;1.53;;;-0.20;99.90;;;;;;5134548;27;20313;-71
2023/02/26 00:11:51;;;;;;;1.53;1.03;;;-0.20;99.90;;;;;;5134560;27;20172;-72
2023/02/26 00:14:17;;;;;;;2.80;1.10;;;-0.20;99.90;;;;;;5134526;27;20187;-71
2023/02/26 00:16:46;;;;;;;1.00;0.90;;;-0.20;99.90;;;;;;5123978;27;20259;-71
2023/02/26 00:19:13;;;;;;;2.30;1.50;;;-0.10;99.90;;;;;;5123000;27;20436;-72
2023/02/26 00:21:38;;;;;;;3.77;1.30;;;0.10;99.90;;;;;;5134445;27;20450;-71
2023/02/26 00:24:05;;;;;;;8.30;1.00;;;0.20;99.90;;;;;;5134325;27;20404;-72
2023/02/26 00:26:32;;;;;;;1.90;1.20;;;0.30;99.90;;;;;;5133121;27;20447;-71
2023/02/26 00:28:58;;;;;;;1.50;1.00;;;0.50;99.90;;;;;;5133979;27;20417;-72
2023/02/26 00:31:24;;;;;;;1.33;0.90;;;0.70;99.90;;;;;;5134141;27;20398;-72
2023/02/26 00:33:50;;;;;;;1.87;1.40;;;0.80;99.90;;;;;;5134114;27;20491;-72
2023/02/26 00:36:23;;;;;;;2.60;1.37;;;0.80;99.90;;;;;;5133922;27;20168;-71
2023/02/26 00:39:19;;;;;;;1.93;1.03;;;1.00;99.90;;;;;;5132177;27;21159;-71
2023/02/26 00:41:45;;;;;;;2.73;2.53;;;1.10;99.90;;;;;;5133928;27;20445;-71
2023/02/26 00:44:11;;;;;;;3.77;1.10;;;1.10;99.90;;;;;;5133834;27;20405;-72
2023/02/26 00:46:41;;;;;;;1.53;1.00;;;1.20;99.90;;;;;;5132572;27;20174;-72
2023/02/26 00:49:42;;;;;;;5.73;1.20;;;1.30;99.90;;;;;;5111512;28;20373;-72
2023/02/26 00:52:25;;;;;;;1.20;1.10;;;1.30;99.90;;;;;;5113271;28;20415;-73
2023/02/26 00:54:50;;;;;;;2.70;1.00;;;1.40;99.90;;;;;;5113313;28;20410;-72
2023/02/26 00:57:16;;;;;;;1.30;1.00;;;1.50;99.90;;;;;;5112968;28;20404;-73
2023/02/26 00:59:41;;;;;;;4.97;1.67;;;1.50;99.90;;;;;;5111811;28;20196;-72
2023/02/26 01:02:07;;;;;;;2.53;1.00;;;1.60;99.90;;;;;;5111660;28;20196;-72
2023/02/26 01:04:33;;;;;;;4.20;2.27;;;1.60;99.90;;;;;;5119616;27;20168;-72
2023/02/26 01:06:58;;;;;;;6.47;1.20;;;1.60;99.90;;;;;;5133232;27;20171;-73
2023/02/26 01:09:26;;;;;;;3.10;2.10;;;1.60;99.90;;;;;;5133620;27;20191;-73
2023/02/26 01:11:54;;;;;;;0.90;0.77;;;1.70;99.90;;;;;;5133400;27;20172;-72
2023/02/26 01:14:21;;;;;;;3.00;1.10;;;1.70;99.90;;;;;;5134550;27;20476;-72
2023/02/26 01:17:02;;;;;;;2.70;1.20;;;1.70;99.90;;;;;;5144508;27;20406;-73
2023/02/26 01:19:51;;;;;;;5.27;2.30;;;1.70;99.90;;;;;;5131966;27;20509;-73
2023/02/26 01:22:22;;;;;;;1.93;1.37;;;1.80;99.90;;;;;;5133183;27;20492;-72
2023/02/26 01:24:50;;;;;;;3.20;1.27;;;1.80;99.90;;;;;;5131994;27;20420;-73
2023/02/26 01:27:15;;;;;;;3.07;1.10;;;1.70;99.90;;;;;;5132915;27;20400;-73
2023/02/26 01:29:41;;;;;;;1.20;1.00;;;1.70;99.90;;;;;;5131735;27;21015;-73
2023/02/26 01:32:24;;;;;;;3.00;1.60;;;1.60;99.90;;;;;;5132824;27;20266;-73
2023/02/26 01:34:55;;;;;;;2.30;1.30;;;1.40;99.90;;;;;;5133899;27;20221;-72
2023/02/26 01:37:35;;;;;;;4.20;1.00;;;1.30;99.90;;;;;;5131788;27;20421;-72
2023/02/26 01:40:28;;;;;;;2.80;1.10;;;1.10;99.90;;;;;;5131788;27;20432;-72
2023/02/26 01:43:02;;;;;;;1.47;1.07;;;1.00;99.90;;;;;;5131825;27;20542;-73
2023/02/26 01:45:35;;;;;;;8.27;1.33;;;0.80;99.90;;;;;;5126912;27;20442;-72
2023/02/26 01:48:12;;;;;;;1.43;0.90;;;0.70;99.90;;;;;;5129297;27;20417;-72
2023/02/26 01:50:38;;;;;;;1.17;1.03;;;0.60;99.90;;;;;;5132559;27;20505;-72
2023/02/26 01:53:24;;;;;;;2.43;1.30;;;0.50;99.90;;;;;;5133009;28;20440;-72
2023/02/26 01:55:57;;;;;;;2.20;1.03;;;0.40;99.90;;;;;;5132802;28;20458;-72
2023/02/26 01:58:24;;;;;;;1.23;1.10;;;0.40;99.90;;;;;;5132410;27;20458;-72
2023/02/26 02:00:51;;;;;;;3.23;0.93;;;0.40;99.90;;;;;;5132644;27;20441;-72
2023/02/26 02:03:18;;;;;;;2.80;1.20;;;0.50;99.90;;;;;;5132927;27;20453;-73
2023/02/26 02:05:57;;;;;;;3.13;1.10;;;0.60;99.90;;;;;;5115789;27;20403;-71
2023/02/26 02:08:23;;;;;;;2.83;1.20;;;0.70;99.90;;;;;;5110692;28;20414;-73
2023/02/26 02:10:50;;;;;;;3.13;1.40;;;0.80;99.90;;;;;;5112006;28;20425;-73
2023/02/26 02:13:29;;;;;;;1.87;1.57;;;0.90;99.90;;;;;;5111961;28;20588;-72
2023/02/26 02:16:06;;;;;;;1.97;1.00;;;0.90;99.90;;;;;;5122988;27;20510;-72
2023/02/26 02:18:53;;;;;;;3.23;0.90;;;1.00;99.90;;;;;;5132168;27;20408;-73
2023/02/26 02:21:47;;;;;;;2.70;1.23;;;1.00;99.90;;;;;;5132673;27;20408;-73
2023/02/26 02:24:29;;;;;;;1.77;1.07;;;1.10;99.90;;;;;;5109243;27;20431;-72
2023/02/26 02:27:29;;;;;;;1.53;1.27;;;1.10;99.90;;;;;;5140148;27;20939;-72
2023/02/26 02:30:10;;;;;;;4.83;1.33;;;1.10;99.90;;;;;;5100605;28;20465;-72
2023/02/26 02:32:47;;;;;;;8.83;1.13;;;1.00;99.90;;;;;;5110734;28;20849;-72
2023/02/26 02:35:21;;;;;;;1.20;0.90;;;1.00;99.90;;;;;;5112081;28;20409;-72
2023/02/26 02:37:55;;;;;;;1.73;1.33;;;1.00;99.90;;;;;;5111784;28;20818;-72
2023/02/26 02:40:31;;;;;;;6.27;1.80;;;0.90;99.90;;;;;;5111797;28;20425;-72
2023/02/26 02:43:11;;;;;;;1.00;0.90;;;0.90;99.90;;;;;;5111901;28;20612;-72
2023/02/26 02:45:41;;;;;;;1.33;1.00;;;0.80;99.90;;;;;;5114469;28;20405;-72
2023/02/26 02:48:36;;;;;;;1.60;0.97;;;0.70;99.90;;;;;;5132130;27;20436;-73
2023/02/26 02:51:08;;;;;;;3.93;1.17;;;0.60;99.90;;;;;;5132457;27;20405;-73
2023/02/26 02:53:40;;;;;;;1.80;0.97;;;0.60;99.90;;;;;;5132446;27;20402;-73
2023/02/26 02:56:16;;;;;;;2.53;2.13;;;0.40;99.90;;;;;;5132345;27;20416;-74
2023/02/26 02:58:48;;;;;;;6.43;1.37;;;0.40;99.90;;;;;;5132151;27;20538;-73
2023/02/26 03:01:18;;;;;;;1.33;0.93;;;0.30;99.90;;;;;;5134658;27;20451;-73
2023/02/26 03:04:05;;;;;;;2.90;1.30;;;0.20;99.90;;;;;;5134822;27;20480;-72
2023/02/26 03:06:31;;;;;;;2.07;1.00;;;0.10;99.90;;;;;;5115469;28;21167;-70
2023/02/26 03:08:58;;;;;;;1.20;1.00;;;0.00;99.90;;;;;;5115062;28;20458;-71
2023/02/26 03:11:24;;;;;;;1.43;1.07;;;-0.10;99.90;;;;;;5113900;28;20946;-71
2023/02/26 03:13:51;;;;;;;2.97;1.10;;;-0.10;99.90;;;;;;5114987;28;20499;-72
2023/02/26 03:16:33;;;;;;;1.60;1.10;;;-0.20;99.90;;;;;;5131908;27;20556;-71
2023/02/26 03:19:15;;;;;;;1.50;1.20;;;-0.30;99.90;;;;;;5134055;27;20421;-71
2023/02/26 03:22:00;;;;;;;5.03;2.40;;;-0.40;99.90;;;;;;5134314;27;20407;-71
2023/02/26 03:24:45;;;;;;;5.60;1.43;;;-0.40;99.90;;;;;;5135586;27;20903;-71
2023/02/26 03:27:32;;;;;;;1.30;1.17;;;-0.50;99.90;;;;;;5135031;27;20390;-71
2023/02/26 03:30:01;;;;;;;2.40;1.43;;;-0.60;99.90;;;;;;5135417;27;20425;-72
2023/02/26 03:32:33;;;;;;;4.03;1.43;;;-0.60;99.90;;;;;;5137406;27;20781;-71
2023/02/26 03:35:41;;;;;;;3.87;2.27;;;-0.70;99.90;;;;;;5150467;27;20416;-71
2023/02/26 03:38:11;;;;;;;3.77;1.93;;;-0.70;99.90;;;;;;5092395;27;20409;-71
2023/02/26 03:40:53;;;;;;;5.17;2.83;;;-0.80;99.90;;;;;;5158702;27;20432;-71
2023/02/26 03:43:24;;;;;;;1.17;1.03;;;-0.80;99.90;;;;;;5158342;27;20448;-71
2023/02/26 03:45:55;;;;;;;1.83;1.30;;;-0.80;99.90;;;;;;5131284;27;20953;-71
2023/02/26 03:48:25;;;;;;;2.70;1.47;;;-0.90;99.90;;;;;;5115020;27;20547;-72
2023/02/26 03:50:56;;;;;;;1.70;1.60;;;-0.90;99.90;;;;;;5114409;28;20418;-72
2023/02/26 03:53:25;;;;;;;1.50;1.40;;;-0.90;99.90;;;;;;5114439;28;20898;-72
2023/02/26 03:55:54;;;;;;;1.00;0.90;;;-0.90;99.90;;;;;;5113097;28;20409;-72
2023/02/26 03:58:21;;;;;;;3.03;1.73;;;-1.00;99.90;;;;;;5112781;28;20408;-72
2023/02/26 04:00:51;;;;;;;2.40;1.37;;;-1.00;99.90;;;;;;5113104;28;20430;-72
2023/02/26 04:03:31;;;;;;;14.63;7.70;;;-1.00;99.90;;;;;;5115423;28;20979;-72
2023/02/26 04:05:59;;;;;;;6.20;3.70;;;-1.00;99.90;;;;;;5116728;28;20491;-71
2023/02/26 04:08:25;;;;;;;1.90;1.13;;;-1.00;99.90;;;;;;5116819;28;20444;-71
2023/02/26 04:11:09;;;;;;;3.23;1.00;;;-1.00;99.90;;;;;;5115283;28;20430;-71
2023/02/26 04:13:35;;;;;;;1.83;0.83;;;-1.00;99.90;;;;;;5116562;28;20948;-71
2023/02/26 04:16:00;;;;;;;2.20;1.63;;;-1.00;99.90;;;;;;5134265;27;20432;-71
2023/02/26 04:18:26;;;;;;;1.83;1.20;;;-0.90;99.90;;;;;;5135594;27;20220;-71
2023/02/26 04:20:52;;;;;;;2.40;1.23;;;-0.90;99.90;;;;;;5135748;27;20233;-71
2023/02/26 04:23:18;;;;;;;20.37;10.30;;;-0.90;99.90;;;;;;5136344;27;20237;-72
2023/02/26 04:25:44;;;;;;;3.07;2.30;;;-0.80;99.90;;;;;;5133054;27;20183;-72
2023/02/26 04:28:10;;;;;;;2.40;1.43;;;-0.80;99.90;;;;;;5132762;27;20562;-72
2023/02/26 04:30:35;;;;;;;3.30;1.33;;;-0.70;99.90;;;;;;5134113;27;20944;-72
2023/02/26 04:33:01;;;;;;;2.13;1.93;;;-0.80;99.90;;;;;;5134184;27;20677;-72
2023/02/26 04:35:27;;;;;;;1.57;1.00;;;-0.80;99.90;;;;;;5134406;27;20174;-71
2023/02/26 04:37:52;;;;;;;2.17;1.83;;;-0.80;99.90;;;;;;5135068;27;20176;-70
2023/02/26 04:40:18;;;;;;;1.10;1.00;;;-0.80;99.90;;;;;;5145463;27;20513;-71
2023/02/26 04:42:43;;;;;;;8.03;3.37;;;-0.90;99.90;;;;;;5133918;27;20192;-70
2023/02/26 04:45:09;;;;;;;4.33;2.57;;;-0.90;99.90;;;;;;5118895;27;20169;-71
2023/02/26 04:47:35;;;;;;;2.90;1.50;;;-0.90;99.90;;;;;;5111702;28;20175;-71
2023/02/26 04:50:00;;;;;;;1.20;0.90;;;-0.90;99.90;;;;;;5113219;28;20181;-71
2023/02/26 04:52:26;;;;;;;1.60;1.00;;;-1.00;99.90;;;;;;5112000;28;20185;-70
2023/02/26 04:54:51;;;;;;;1.23;1.00;;;-1.00;99.90;;;;;;5113244;28;20193;-71
2023/02/26 04:57:17;;;;;;;5.27;1.20;;;-1.10;99.90;;;;;;5111571;28;20173;-70
2023/02/26 04:59:42;;;;;;;1.93;1.27;;;-1.10;99.90;;;;;;5112961;28;20189;-71
2023/02/26 05:02:09;;;;;;;1.40;1.10;;;-1.10;99.90;;;;;;5111722;28;20198;-70
2023/02/26 05:04:34;;;;;;;6.53;2.13;;;-1.20;99.90;;;;;;5120194;27;20166;-71
2023/02/26 05:07:00;;;;;;;28.47;9.63;;;-1.20;99.90;;;;;;5133129;27;20495;-70
2023/02/26 05:09:26;;;;;;;9.67;6.43;;;-1.20;99.90;;;;;;5133489;27;20189;-70
2023/02/26 05:11:51;;;;;;;1.83;1.40;;;-1.20;99.90;;;;;;5133412;27;20175;-70
2023/02/26 05:14:17;;;;;;;1.20;1.00;;;-1.20;99.90;;;;;;5123469;27;20268;-70
2023/02/26 05:16:43;;;;;;;1.30;1.20;;;-1.20;99.90;;;;;;5112792;28;20164;-70
2023/02/26 05:19:08;;;;;;;2.43;2.20;;;-1.30;99.90;;;;;;5112512;28;20234;-70
2023/02/26 05:21:34;;;;;;;1.67;1.30;;;-1.30;99.90;;;;;;5112617;28;20165;-71
2023/02/26 05:23:59;;;;;;;1.20;1.00;;;-1.30;99.90;;;;;;5112448;28;20164;-71
2023/02/26 05:26:25;;;;;;;1.13;1.03;;;-1.30;99.90;;;;;;5112677;28;20248;-71
2023/02/26 05:28:51;;;;;;;1.60;1.17;;;-1.30;99.90;;;;;;5112220;28;20220;-72
2023/02/26 05:31:16;;;;;;;2.13;1.23;;;-1.30;99.90;;;;;;5112592;28;20189;-73
2023/02/26 05:33:42;;;;;;;1.30;1.00;;;-1.40;99.90;;;;;;5111235;28;20409;-71
2023/02/26 05:36:08;;;;;;;1.40;1.10;;;-1.40;99.90;;;;;;5119268;27;20199;-71
2023/02/26 05:38:34;;;;;;;2.23;1.27;;;-1.40;99.90;;;;;;5132687;27;20164;-72
2023/02/26 05:41:00;;;;;;;1.10;1.00;;;-1.40;99.90;;;;;;5135255;27;20429;-71
2023/02/26 05:43:26;;;;;;;3.23;1.23;;;-1.40;99.90;;;;;;5137329;27;20723;-71
2023/02/26 05:45:52;;;;;;;3.33;1.90;;;-1.50;99.90;;;;;;5138060;27;20422;-71
2023/02/26 05:48:18;;;;;;;1.93;1.60;;;-1.40;99.90;;;;;;5136460;27;20429;-72
2023/02/26 05:50:43;;;;;;;2.40;1.40;;;-1.40;99.90;;;;;;5148833;27;20432;-71
2023/02/26 05:53:09;;;;;;;3.23;1.10;;;-1.40;99.90;;;;;;5140234;27;20172;-71
2023/02/26 05:55:35;;;;;;;1.73;0.93;;;-1.40;99.90;;;;;;5137273;27;20182;-71
2023/02/26 05:58:01;;;;;;;21.63;11.87;;;-1.40;99.90;;;;;;5137034;28;20198;-71
2023/02/26 06:00:27;;;;;;;24.00;10.43;;;-1.40;99.90;;;;;;5135644;28;20797;-71
2023/02/26 06:02:52;;;;;;;13.33;7.47;;;-1.40;99.90;;;;;;5118063;28;20499;-71
2023/02/26 06:05:18;;;;;;;4.63;2.37;;;-1.50;99.90;;;;;;5131322;28;20167;-70
2023/02/26 06:07:44;;;;;;;1.87;1.23;;;-1.50;99.90;;;;;;5137990;27;20175;-70
2023/02/26 06:10:10;;;;;;;3.20;1.53;;;-1.50;99.90;;;;;;5138854;27;20176;-71
2023/02/26 06:12:36;;;;;;;1.77;1.30;;;-1.50;99.90;;;;;;5138735;27;20176;-72
2023/02/26 06:15:03;;;;;;;4.63;1.17;;;-1.50;99.90;;;;;;5137345;27;20502;-71
2023/02/26 06:17:28;;;;;;;2.30;1.80;;;-1.50;99.90;;;;;;5137642;27;20168;-70
2023/02/26 06:19:54;;;;;;;3.83;1.40;;;-1.50;99.90;;;;;;5137301;27;20479;-71
2023/02/26 06:22:19;;;;;;;4.10;1.93;;;-1.50;99.90;;;;;;5138350;27;20184;-71
2023/02/26 06:24:45;;;;;;;5.37;1.40;;;-1.40;99.90;;;;;;5137968;28;20180;-71
2023/02/26 06:27:11;;;;;;;2.53;1.03;;;-1.40;99.90;;;;;;5137444;27;20160;-71
2023/02/26 06:29:36;;;;;;;2.57;1.20;;;-1.40;99.90;;;;;;5137288;27;20553;-71
2023/02/26 06:32:03;;;;;;;2.00;1.77;;;-1.40;99.90;;;;;;5127304;28;20183;-71
2023/02/26 06:34:29;;;;;;;1.87;1.67;;;-1.40;99.90;;;;;;5117326;28;20222;-71
2023/02/26 06:36:54;;;;;;;1.73;1.63;;;-1.30;99.90;;;;;;5119286;28;20839;-71
2023/02/26 06:39:20;;;;;;;4.83;1.90;;;-1.30;99.90;;;;;;5119730;28;20215;-71
2023/02/26 06:41:45;;;;;;;4.77;1.73;;;-1.20;99.90;;;;;;5121127;28;20180;-71
2023/02/26 06:44:11;;;;;;;20.47;7.73;;;-1.20;99.90;;;;;;5120375;28;20204;-71
2023/02/26 06:46:37;;;;;;;4.37;3.27;;;-1.10;99.90;;;;;;5120595;27;20192;-72
2023/02/26 06:49:03;;;;;;;3.53;1.40;;;-1.10;99.90;;;;;;5119166;28;20239;-71
2023/02/26 06:51:29;;;;;;;1.57;1.30;;;-1.00;99.90;;;;;;5119323;28;20219;-71
2023/02/26 06:53:55;;;;;;;2.90;1.13;;;-0.90;99.90;;;;;;5120994;28;20407;-71
2023/02/26 06:56:21;;;;;;;1.33;1.23;;;-0.90;99.90;;;;;;5118369;28;20407;-71
2023/02/26 06:58:47;;;;;;;3.53;1.60;;;-0.80;99.90;;;;;;5119778;28;20402;-72
2023/02/26 07:01:12;;;;;;;2.13;1.93;;;-0.80;99.90;;;;;;5137403;27;20466;-71
2023/02/26 07:03:38;;;;;;;1.40;1.20;;;-0.70;99.90;;;;;;5149804;27;20617;-71
2023/02/26 07:06:06;;;;;;;1.90;1.00;;;-0.60;99.90;;;;;;5119346;27;20171;-71
2023/02/26 07:08:32;;;;;;;1.20;1.10;;;-0.50;99.90;;;;;;5119782;28;20157;-71
2023/02/26 07:10:58;;;;;;;1.37;1.17;;;-0.40;99.90;;;;;;5117966;28;20425;-71
2023/02/26 07:13:23;;;;;;;1.97;1.30;;;-0.30;99.90;;;;;;5117893;28;20437;-71
2023/02/26 07:15:49;;;;;;;1.37;1.20;;;-0.30;99.90;;;;;;5118596;28;20251;-71
2023/02/26 07:18:15;;;;;;;1.20;1.00;;;-0.20;99.90;;;;;;5119303;28;20534;-71
2023/02/26 07:20:41;;;;;;;2.03;1.43;;;-0.10;99.90;;;;;;5115138;28;20192;-71
2023/02/26 07:23:07;;;;;;;3.50;0.87;;;-0.10;99.90;;;;;;5114922;28;20181;-70
2023/02/26 07:25:33;;;;;;;12.63;1.53;;;0.00;99.90;;;;;;5115020;28;20403;-71
2023/02/26 07:27:58;;;;;;;1.83;1.57;;;0.10;99.90;;;;;;5114565;28;20175;-71
2023/02/26 07:30:24;;;;;;;1.27;1.00;;;0.20;99.90;;;;;;5121416;27;20625;-71
2023/02/26 07:32:50;;;;;;;5.40;1.90;;;0.30;99.90;;;;;;5114822;28;20407;-71
2023/02/26 07:35:16;;;;;;;13.73;6.00;;;0.40;99.90;;;;;;5113509;28;20428;-71
2023/02/26 07:37:41;;;;;;;3.10;1.63;;;0.50;99.90;;;;;;5114592;28;20217;-70
2023/02/26 07:40:08;;;;;;;1.20;1.00;;;0.60;99.90;;;;;;5114617;28;20196;-71
2023/02/26 07:42:33;;;;;;;1.70;1.10;;;0.80;99.90;;;;;;5114638;28;20181;-71
2023/02/26 07:44:59;;;;;;;1.97;1.50;;;0.90;99.90;;;;;;5114611;28;20403;-73
2023/02/26 07:47:25;;;;;;;1.70;1.33;;;0.80;99.90;;;;;;5112999;28;20168;-71
2023/02/26 07:49:51;;;;;;;1.83;1.57;;;1.00;99.90;;;;;;5114526;28;20176;-71
2023/02/26 07:52:16;;;;;;;2.33;1.50;;;1.10;99.90;;;;;;5114558;28;20450;-72
2023/02/26 07:54:42;;;;;;;1.27;1.17;;;1.10;99.90;;;;;;5113167;28;20172;-73
2023/02/26 07:57:08;;;;;;;1.73;1.20;;;1.30;99.90;;;;;;5114425;28;20244;-72
2023/02/26 07:59:34;;;;;;;3.20;1.77;;;1.50;99.90;;;;;;5119296;27;20206;-71
2023/02/26 08:01:59;;;;;;;2.57;1.67;;;1.70;99.90;;;;;;5125688;27;20191;-72
2023/02/26 08:04:25;;;;;;;2.33;1.60;;;1.90;99.90;;;;;;5112913;28;20403;-72
2023/02/26 08:06:53;;;;;;;1.90;1.70;;;2.30;99.90;;;;;;5114057;28;20787;-72
2023/02/26 08:09:19;;;;;;;2.53;1.27;;;3.70;99.90;;;;;;5114016;28;20188;-72
2023/02/26 08:11:45;;;;;;;4.07;1.60;;;5.90;99.90;;;;;;5114092;28;20409;-72
2023/02/26 08:14:12;;;;;;;1.50;1.40;;;8.20;99.90;;;;;;5145855;27;20424;-73
2023/02/26 08:16:37;;;;;;;4.03;1.40;;;10.60;99.90;;;;;;5134415;27;20398;-73
2023/02/26 08:19:03;;;;;;;1.20;1.00;;;12.60;91.70;;;;;;5134177;27;20973;-72
2023/02/26 08:21:29;;;;;;;2.33;1.87;;;14.10;71.80;;;;;;5134462;27;20168;-72
2023/02/26 08:23:54;;;;;;;2.00;1.57;;;15.40;62.70;;;;;;5134290;27;20204;-72
2023/02/26 08:26:20;;;;;;;2.20;1.47;;;16.40;53.90;;;;;;5134351;27;20182;-73
2023/02/26 08:28:46;;;;;;;12.23;7.53;;;17.40;49.30;;;;;;5133670;27;20168;-73
2023/02/26 08:31:12;;;;;;;23.03;13.40;;;18.30;46.80;;;;;;5124730;27;20197;-73
2023/02/26 08:33:38;;;;;;;3.10;1.90;;;19.30;45.50;;;;;;5134310;27;20451;-74
2023/02/26 08:36:04;;;;;;;2.80;2.03;;;20.30;43.50;;;;;;5134001;27;20389;-73
2023/02/26 08:38:30;;;;;;;2.07;1.60;;;21.10;40.70;;;;;;5133899;27;20179;-73
2023/02/26 08:40:56;;;;;;;5.63;1.77;;;21.60;38.70;;;;;;5132692;27;20950;-73
2023/02/26 08:43:22;;;;;;;3.23;1.53;;;22.40;38.00;;;;;;5132827;27;20458;-73
2023/02/26 08:45:50;;;;;;;3.73;1.63;;;23.20;36.90;;;;;;5122851;27;20642;-73
2023/02/26 08:48:16;;;;;;;2.70;1.23;;;24.10;35.80;;;;;;5120573;27;20892;-73
2023/02/26 08:50:41;;;;;;;2.20;1.97;;;25.30;35.00;;;;;;5130007;27;20428;-73
2023/02/26 08:53:07;;;;;;;3.27;2.10;;;26.30;33.60;;;;;;5132756;27;20213;-71
2023/02/26 08:55:32;;;;;;;2.07;1.80;;;27.40;32.10;;;;;;5132422;27;20180;-71
2023/02/26 08:57:58;;;;;;;2.60;1.43;;;28.40;30.70;;;;;;5132956;27;20195;-72
2023/02/26 09:00:24;;;;;;;2.43;1.70;;;29.10;29.50;;;;;;5133681;27;20223;-72
2023/02/26 09:02:49;;;;;;;1.97;1.70;;;29.70;27.90;;;;;;5130060;27;20295;-72
2023/02/26 09:05:15;;;;;;;2.60;1.77;;;30.40;27.60;;;;;;5120428;27;20700;-73
2023/02/26 09:07:42;;;;;;;2.67;1.60;;;30.80;26.40;;;;;;5120065;27;20544;-72
2023/02/26 09:10:09;;;;;;;4.07;1.57;;;31.10;26.10;;;;;;5115337;27;20430;-72
2023/02/26 09:12:37;;;;;;;3.07;1.97;;;31.50;26.10;;;;;;5121529;27;20421;-72
2023/02/26 09:15:07;;;;;;;1.97;1.23;;;31.70;25.40;;;;;;5122978;27;21004;-72
2023/02/26 09:17:33;;;;;;;3.23;1.53;;;31.30;24.10;;;;;;5132450;27;20433;-73
2023/02/26 09:19:58;;;;;;;4.43;1.77;;;31.70;24.60;;;;;;5137549;27;20520;-73
2023/02/26 09:22:24;;;;;;;4.67;1.43;;;32.30;24.70;;;;;;5141605;27;20196;-73
2023/02/26 09:24:50;;;;;;;5.67;2.00;;;32.30;24.20;;;;;;5133272;27;20576;-72
2023/02/26 09:27:16;;;;;;;1.90;1.67;;;31.70;23.80;;;;;;5133043;27;20176;-73
2023/02/26 09:29:41;;;;;;;2.03;1.57;;;31.80;23.60;;;;;;5124087;27;20192;-72
2023/02/26 09:32:07;;;;;;;2.23;1.40;;;31.50;23.80;;;;;;5133226;27;20421;-72
2023/02/26 09:34:37;;;;;;;2.67;1.30;;;31.10;23.30;;;;;;5132168;27;20188;-72
2023/02/26 09:37:08;;;;;;;5.53;1.47;;;31.20;23.30;;;;;;5132827;27;20707;-72
2023/02/26 09:39:34;;;;;;;27.30;16.37;;;31.40;23.60;;;;;;5133105;27;20414;-72
2023/02/26 09:42:28;;;;;;;7.47;5.20;;;31.90;23.70;;;;;;5133068;27;20456;-72
2023/02/26 09:44:58;;;;;;;1.30;1.20;;;32.50;23.40;;;;;;5133145;27;20402;-72
2023/02/26 09:47:38;;;;;;;1.27;1.17;;;33.00;22.80;;;;;;5132540;27;20928;-72
2023/02/26 09:50:16;;;;;;;2.20;1.40;;;32.60;21.80;;;;;;5133059;27;20428;-72
2023/02/26 09:53:14;;;;;;;2.10;1.27;;;32.00;22.00;;;;;;5131703;27;20504;-72
2023/02/26 09:55:43;;;;;;;2.97;1.67;;;31.40;22.00;;;;;;5131632;27;20470;-72
2023/02/26 09:58:22;;;;;;;1.73;1.10;;;31.30;22.00;;;;;;5129717;27;20489;-72
2023/02/26 10:01:09;;;;;;;1.73;1.20;;;31.30;22.00;;;;;;5111056;28;20430;-72
2023/02/26 10:03:37;;;;;;;2.67;1.47;;;31.20;21.70;;;;;;5112274;28;20853;-72
2023/02/26 10:06:15;;;;;;;2.03;1.10;;;31.00;21.70;;;;;;5118149;28;20836;-72
2023/02/26 10:09:01;;;;;;;2.13;1.40;;;30.80;21.80;;;;;;5121879;27;20406;-72
2023/02/26 10:11:51;;;;;;;2.07;1.33;;;30.70;21.60;;;;;;5086633;27;20403;-72
2023/02/26 10:14:55;;;;;;;1.50;1.13;;;29.40;21.90;;;;;;5116330;28;20433;-72
2023/02/26 10:17:38;;;;;;;1.20;1.10;;;29.40;22.40;;;;;;5116151;28;20403;-72
2023/02/26 10:20:26;;;;;;;1.97;1.10;;;29.90;22.00;;;;;;5116264;28;20438;-72
2023/02/26 10:23:16;;;;;;;2.27;1.30;;;30.30;22.30;;;;;;5101742;28;20446;-72
2023/02/26 10:26:03;;;;;;;1.83;1.13;;;30.40;21.90;;;;;;5115045;28;20534;-69
2023/02/26 10:28:54;;;;;;;3.33;1.27;;;30.60;21.80;;;;;;5121259;27;20508;-71
2023/02/26 10:31:37;;;;;;;1.33;1.00;;;31.00;22.20;;;;;;5130546;27;20409;-72
2023/02/26 10:34:16;;;;;;;1.47;1.27;;;31.80;21.60;;;;;;5143779;27;20409;-72
2023/02/26 10:36:57;;;;;;;1.43;1.20;;;32.50;21.10;;;;;;5135297;27;20397;-72
2023/02/26 10:39:27;;;;;;;2.17;1.50;;;33.10;20.50;;;;;;5136675;27;20492;-72
2023/02/26 10:41:52;;;;;;;1.70;1.50;;;31.60;20.40;;;;;;5135162;27;20408;-72
2023/02/26 10:44:34;;;;;;;2.60;1.40;;;31.80;21.30;;;;;;5136365;27;20975;-72
2023/02/26 10:46:59;;;;;;;1.70;1.23;;;32.90;21.50;;;;;;5136171;27;20160;-72
2023/02/26 10:49:46;;;;;;;2.47;1.50;;;34.00;21.40;;;;;;5136178;27;20416;-72
2023/02/26 10:52:16;;;;;;;6.00;3.47;;;33.60;19.90;;;;;;5136260;27;20168;-72
2023/02/26 10:55:15;;;;;;;2.03;1.93;;;33.00;20.20;;;;;;5136266;27;20426;-72
2023/02/26 10:57:49;;;;;;;1.53;1.30;;;33.40;20.50;;;;;;5134094;27;20546;-72
2023/02/26 11:00:18;;;;;;;2.03;1.17;;;33.50;20.20;;;;;;5115270;28;20479;-72
2023/02/26 11:02:48;;;;;;;2.80;1.23;;;34.50;20.60;;;;;;5121940;27;20461;-72
2023/02/26 11:05:23;;;;;;;1.93;1.27;;;34.80;19.70;;;;;;5124357;27;20540;-72
2023/02/26 11:07:59;;;;;;;1.40;1.07;;;34.50;19.80;;;;;;5120860;27;20398;-72
2023/02/26 11:10:34;;;;;;;1.23;0.87;;;33.00;19.20;;;;;;5115532;28;20552;-72
2023/02/26 11:12:59;;;;;;;1.57;1.13;;;33.10;20.00;;;;;;5114742;28;20430;-72
2023/02/26 11:15:26;;;;;;;1.50;1.20;;;34.10;20.30;;;;;;5113998;28;20413;-72
2023/02/26 11:17:57;;;;;;;1.60;1.40;;;33.70;19.60;;;;;;5113790;28;20169;-72
2023/02/26 11:20:40;;;;;;;2.40;1.10;;;33.70;19.30;;;;;;5113684;28;20430;-72
2023/02/26 11:23:12;;;;;;;1.80;1.20;;;33.10;19.50;;;;;;5113911;28;20450;-72
2023/02/26 11:25:39;;;;;;;1.90;1.30;;;33.00;20.20;;;;;;5114027;28;21189;-73
2023/02/26 11:28:26;;;;;;;1.50;1.30;;;32.90;20.00;;;;;;5113485;28;20466;-72
2023/02/26 11:30:56;;;;;;;5.07;1.73;;;32.50;20.20;;;;;;5106657;28;20438;-73
2023/02/26 11:33:35;;;;;;;1.60;1.23;;;33.40;20.70;;;;;;5123739;28;20413;-72
2023/02/26 11:36:11;;;;;;;1.90;1.43;;;34.60;20.50;;;;;;5121854;28;20430;-73
2023/02/26 11:38:37;;;;;;;2.87;1.60;;;35.30;20.40;;;;;;5124357;28;20956;-73
2023/02/26 11:41:04;;;;;;;1.30;1.13;;;36.20;20.10;;;;;;5112655;28;20406;-73
2023/02/26 11:43:40;;;;;;;1.50;1.37;;;34.10;19.00;;;;;;5134118;27;20274;-72
2023/02/26 11:46:06;;;;;;;1.93;1.27;;;32.60;19.70;;;;;;5136544;27;20416;-72
2023/02/26 11:48:46;;;;;;;1.23;1.10;;;30.20;19.20;;;;;;5133566;27;20410;-72
2023/02/26 11:51:15;;;;;;;2.17;1.00;;;27.10;19.90;;;;;;5134142;27;20396;-72
2023/02/26 11:54:00;;;;;;;1.27;0.90;;;23.90;20.40;;;;;;5134042;27;20887;-72
2023/02/26 11:56:32;;;;;;;1.40;1.00;;;22.00;22.00;;;;;;5134065;27;20914;-72
2023/02/26 11:59:07;;;;;;;1.00;0.80;;;22.70;23.40;;;;;;5116529;27;20827;-72
2023/02/26 12:01:35;;;;;;;4.40;1.03;;;22.10;22.80;;;;;;5113201;28;20449;-71
2023/02/26 12:04:01;;;;;;;1.50;1.10;;;21.40;23.40;;;;;;5113203;28;20453;-71
2023/02/26 12:06:27;;;;;;;2.30;1.20;;;20.20;23.40;;;;;;5113447;28;20398;-71
2023/02/26 12:08:53;;;;;;;1.90;1.20;;;18.20;23.50;;;;;;5112963;28;20787;-71
2023/02/26 12:11:50;;;;;;;1.60;1.10;;;16.80;24.40;;;;;;5113184;28;20193;-71
2023/02/26 12:14:41;;;;;;;2.43;1.67;;;15.30;25.50;;;;;;5076872;28;1050574;-71
2023/02/26 12:17:31;;;;;;;4.20;1.17;;;13.70;26.80;;;;;;5116314;27;20410;-71
2023/02/26 12:20:16;;;;;;;3.30;1.07;;;13.10;28.20;;;;;;5116584;27;20435;-71
2023/02/26 12:23:15;;;;;;;3.60;2.50;;;12.90;29.10;;;;;;5113928;28;20809;-71
2023/02/26 12:26:11;;;;;;;2.50;1.27;;;13.20;29.80;;;;;;5113855;28;20459;-71
2023/02/26 12:29:01;;;;;;;2.70;1.30;;;13.30;29.00;;;;;;5112227;28;20822;-71
2023/02/26 12:32:02;;;;;;;1.47;0.90;;;13.50;28.90;;;;;;5113751;28;20494;-72
2023/02/26 12:34:55;;;;;;;2.60;1.10;;;15.70;29.50;;;;;;5113301;28;20930;-72
2023/02/26 12:37:32;;;;;;;1.40;0.90;;;17.70;28.90;;;;;;5113462;28;20394;-72
2023/02/26 12:40:05;;;;;;;3.40;1.33;;;20.70;27.90;;;;;;5113556;28;20820;-72
2023/02/26 12:42:50;;;;;;;2.37;1.10;;;23.30;26.60;;;;;;5112043;28;20465;-72
2023/02/26 12:45:30;;;;;;;1.63;1.03;;;24.60;25.80;;;;;;5113580;28;20439;-72
2023/02/26 12:48:14;;;;;;;2.47;2.27;;;27.30;24.80;;;;;;5124842;27;20451;-73
2023/02/26 12:50:58;;;;;;;1.33;0.90;;;29.90;24.10;;;;;;5139245;27;20428;-73
2023/02/26 12:53:48;;;;;;;2.93;1.53;;;31.70;22.10;;;;;;5138457;27;20409;-73
2023/02/26 12:56:23;;;;;;;1.10;0.90;;;33.50;21.60;;;;;;5133821;27;20466;-73
2023/02/26 12:59:00;;;;;;;2.20;1.20;;;34.40;20.10;;;;;;5132266;27;20400;-73
2023/02/26 13:01:59;;;;;;;1.17;1.00;;;34.90;19.50;;;;;;5132484;27;20411;-73
2023/02/26 13:04:49;;;;;;;2.37;1.10;;;35.40;19.30;;;;;;5127754;27;20407;-73
2023/02/26 13:07:34;;;;;;;1.60;1.30;;;36.10;19.30;;;;;;5112941;28;20395;-73
2023/02/26 13:10:12;;;;;;;1.60;1.17;;;35.90;18.00;;;;;;5112970;28;20411;-73
2023/02/26 13:12:52;;;;;;;2.63;1.30;;;33.90;18.70;;;;;;5112847;28;20414;-73